sensor_id;sensor_type;location;lat;lon;timestamp;temperature;humidity
17571;DHT22;8903;52.220;20.978;2023-05-10T00:02:12;9.20;96.60
17571;DHT22;8903;52.220;20.978;2023-05-10T00:04:39;9.10;96.70
17571;DHT22;8903;52.220;20.978;2023-05-10T00:07:07;9.10;96.70
17571;DHT22;8903;52.220;20.978;2023-05-10T00:09:34;9.10;96.70
17571;DHT22;8903;52.220;20.978;2023-05-10T00:12:01;9.00;96.80
17571;DHT22;8903;52.220;20.978;2023-05-10T00:14:28;9.00;96.90
17571;DHT22;8903;52.220;20.978;2023-05-10T00:16:55;9.00;97.00
17571;DHT22;8903;52.220;20.978;2023-05-10T00:19:22;8.90;97.10
17571;DHT22;8903;52.220;20.978;2023-05-10T00:21:49;8.90;97.10
17571;DHT22;8903;52.220;20.978;2023-05-10T00:24:18;8.80;97.10
17571;DHT22;8903;52.220;20.978;2023-05-10T00:26:45;8.80;97.20
17571;DHT22;8903;52.220;20.978;2023-05-10T00:29:12;8.70;97.20
17571;DHT22;8903;52.220;20.978;2023-05-10T00:31:39;8.70;97.30
17571;DHT22;8903;52.220;20.978;2023-05-10T00:34:06;8.70;97.20
17571;DHT22;8903;52.220;20.978;2023-05-10T00:36:33;8.60;97.20
17571;DHT22;8903;52.220;20.978;2023-05-10T00:39:00;8.60;97.10
17571;DHT22;8903;52.220;20.978;2023-05-10T00:41:30;8.60;97.20
17571;DHT22;8903;52.220;20.978;2023-05-10T00:43:59;8.50;97.30
17571;DHT22;8903;52.220;20.978;2023-05-10T00:46:28;8.50;97.30
17571;DHT22;8903;52.220;20.978;2023-05-10T00:48:57;8.50;97.30
17571;DHT22;8903;52.220;20.978;2023-05-10T00:51:24;8.50;97.30
17571;DHT22;8903;52.220;20.978;2023-05-10T00:53:51;8.50;97.30
17571;DHT22;8903;52.220;20.978;2023-05-10T00:56:19;8.40;97.20
17571;DHT22;8903;52.220;20.978;2023-05-10T00:58:50;8.40;97.20
17571;DHT22;8903;52.220;20.978;2023-05-10T01:01:17;8.40;97.30
17571;DHT22;8903;52.220;20.978;2023-05-10T01:03:44;8.30;97.30
17571;DHT22;8903;52.220;20.978;2023-05-10T01:06:12;8.30;97.40
17571;DHT22;8903;52.220;20.978;2023-05-10T01:08:40;8.30;97.40
17571;DHT22;8903;52.220;20.978;2023-05-10T01:11:07;8.30;97.20
17571;DHT22;8903;52.220;20.978;2023-05-10T01:13:35;8.30;97.40
17571;DHT22;8903;52.220;20.978;2023-05-10T01:16:05;8.30;97.40
17571;DHT22;8903;52.220;20.978;2023-05-10T01:18:34;8.30;97.40
17571;DHT22;8903;52.220;20.978;2023-05-10T01:21:10;8.20;97.20
17571;DHT22;8903;52.220;20.978;2023-05-10T01:23:53;8.20;97.30
17571;DHT22;8903;52.220;20.978;2023-05-10T01:26:39;8.20;97.50
17571;DHT22;8903;52.220;20.978;2023-05-10T01:29:41;8.20;97.30
17571;DHT22;8903;52.220;20.978;2023-05-10T01:32:25;8.20;97.30
17571;DHT22;8903;52.220;20.978;2023-05-10T01:34:57;8.10;97.40
17571;DHT22;8903;52.220;20.978;2023-05-10T01:37:33;8.10;97.40
17571;DHT22;8903;52.220;20.978;2023-05-10T01:40:09;8.10;97.30
17571;DHT22;8903;52.220;20.978;2023-05-10T01:42:46;8.10;97.30
17571;DHT22;8903;52.220;20.978;2023-05-10T01:45:18;8.10;97.20
17571;DHT22;8903;52.220;20.978;2023-05-10T01:47:53;8.00;97.20
17571;DHT22;8903;52.220;20.978;2023-05-10T01:50:26;8.00;97.30
17571;DHT22;8903;52.220;20.978;2023-05-10T01:52:56;8.00;97.20
17571;DHT22;8903;52.220;20.978;2023-05-10T01:55:26;8.00;97.30
17571;DHT22;8903;52.220;20.978;2023-05-10T01:58:00;8.00;97.30
17571;DHT22;8903;52.220;20.978;2023-05-10T02:00:29;8.00;97.20
17571;DHT22;8903;52.220;20.978;2023-05-10T02:03:00;8.00;97.60
17571;DHT22;8903;52.220;20.978;2023-05-10T02:05:28;7.90;97.40
17571;DHT22;8903;52.220;20.978;2023-05-10T02:07:58;7.90;97.40
17571;DHT22;8903;52.220;20.978;2023-05-10T02:10:27;7.90;97.30
17571;DHT22;8903;52.220;20.978;2023-05-10T02:12:55;7.90;97.30
17571;DHT22;8903;52.220;20.978;2023-05-10T02:15:26;7.90;97.40
17571;DHT22;8903;52.220;20.978;2023-05-10T02:17:55;7.80;97.40
17571;DHT22;8903;52.220;20.978;2023-05-10T02:20:24;7.80;97.50
17571;DHT22;8903;52.220;20.978;2023-05-10T02:22:55;7.80;97.50
17571;DHT22;8903;52.220;20.978;2023-05-10T02:25:23;7.80;97.50
17571;DHT22;8903;52.220;20.978;2023-05-10T02:27:52;7.80;97.50
17571;DHT22;8903;52.220;20.978;2023-05-10T02:30:21;7.70;97.50
17571;DHT22;8903;52.220;20.978;2023-05-10T02:32:50;7.70;97.60
17571;DHT22;8903;52.220;20.978;2023-05-10T02:35:17;7.70;97.70
17571;DHT22;8903;52.220;20.978;2023-05-10T02:37:47;7.70;97.70
17571;DHT22;8903;52.220;20.978;2023-05-10T02:40:15;7.70;97.70
17571;DHT22;8903;52.220;20.978;2023-05-10T02:42:44;7.70;97.80
17571;DHT22;8903;52.220;20.978;2023-05-10T02:45:22;7.60;97.70
17571;DHT22;8903;52.220;20.978;2023-05-10T02:47:50;7.60;97.90
17571;DHT22;8903;52.220;20.978;2023-05-10T02:50:17;7.60;97.90
17571;DHT22;8903;52.220;20.978;2023-05-10T02:52:47;7.60;97.90
17571;DHT22;8903;52.220;20.978;2023-05-10T02:55:19;7.60;97.90
17571;DHT22;8903;52.220;20.978;2023-05-10T02:57:51;7.60;98.00
17571;DHT22;8903;52.220;20.978;2023-05-10T03:00:19;7.60;97.90
17571;DHT22;8903;52.220;20.978;2023-05-10T03:02:46;7.60;98.00
17571;DHT22;8903;52.220;20.978;2023-05-10T03:05:13;7.60;98.10
17571;DHT22;8903;52.220;20.978;2023-05-10T03:07:41;7.60;98.10
17571;DHT22;8903;52.220;20.978;2023-05-10T03:10:10;7.60;98.20
17571;DHT22;8903;52.220;20.978;2023-05-10T03:12:50;7.60;98.10
17571;DHT22;8903;52.220;20.978;2023-05-10T03:15:29;7.60;98.30
17571;DHT22;8903;52.220;20.978;2023-05-10T03:18:04;7.50;98.20
17571;DHT22;8903;52.220;20.978;2023-05-10T03:20:36;7.50;98.10
17571;DHT22;8903;52.220;20.978;2023-05-10T03:23:07;7.50;98.20
17571;DHT22;8903;52.220;20.978;2023-05-10T03:25:40;7.50;98.00
17571;DHT22;8903;52.220;20.978;2023-05-10T03:28:10;7.50;98.10
17571;DHT22;8903;52.220;20.978;2023-05-10T03:30:38;7.60;98.10
17571;DHT22;8903;52.220;20.978;2023-05-10T03:33:07;7.60;98.30
17571;DHT22;8903;52.220;20.978;2023-05-10T03:35:38;7.60;98.10
17571;DHT22;8903;52.220;20.978;2023-05-10T03:38:05;7.60;98.10
17571;DHT22;8903;52.220;20.978;2023-05-10T03:40:33;7.60;98.10
17571;DHT22;8903;52.220;20.978;2023-05-10T03:43:01;7.60;98.10
17571;DHT22;8903;52.220;20.978;2023-05-10T03:45:28;7.70;98.10
17571;DHT22;8903;52.220;20.978;2023-05-10T03:47:57;7.70;98.10
17571;DHT22;8903;52.220;20.978;2023-05-10T03:50:24;7.70;97.80
17571;DHT22;8903;52.220;20.978;2023-05-10T03:52:52;7.70;97.80
17571;DHT22;8903;52.220;20.978;2023-05-10T03:55:19;7.80;97.80
17571;DHT22;8903;52.220;20.978;2023-05-10T03:57:48;7.80;97.80
17571;DHT22;8903;52.220;20.978;2023-05-10T04:00:17;7.80;97.80
17571;DHT22;8903;52.220;20.978;2023-05-10T04:02:49;7.90;97.70
17571;DHT22;8903;52.220;20.978;2023-05-10T04:05:18;7.90;97.70
17571;DHT22;8903;52.220;20.978;2023-05-10T04:07:45;8.00;97.60
17571;DHT22;8903;52.220;20.978;2023-05-10T04:10:15;8.00;97.50
17571;DHT22;8903;52.220;20.978;2023-05-10T04:12:43;8.10;97.60
17571;DHT22;8903;52.220;20.978;2023-05-10T04:15:10;8.10;97.40
17571;DHT22;8903;52.220;20.978;2023-05-10T04:17:38;8.20;97.40
17571;DHT22;8903;52.220;20.978;2023-05-10T04:20:06;8.30;97.50
17571;DHT22;8903;52.220;20.978;2023-05-10T04:22:33;8.30;97.30
17571;DHT22;8903;52.220;20.978;2023-05-10T04:25:00;8.40;97.10
17571;DHT22;8903;52.220;20.978;2023-05-10T04:27:27;8.40;96.90
17571;DHT22;8903;52.220;20.978;2023-05-10T04:29:54;8.50;97.00
17571;DHT22;8903;52.220;20.978;2023-05-10T04:32:21;8.60;96.50
17571;DHT22;8903;52.220;20.978;2023-05-10T04:34:50;8.70;96.60
17571;DHT22;8903;52.220;20.978;2023-05-10T04:37:17;8.70;96.40
17571;DHT22;8903;52.220;20.978;2023-05-10T04:39:45;8.80;96.30
17571;DHT22;8903;52.220;20.978;2023-05-10T04:42:12;8.80;96.30
17571;DHT22;8903;52.220;20.978;2023-05-10T04:44:40;8.90;96.30
17571;DHT22;8903;52.220;20.978;2023-05-10T04:47:08;9.00;96.10
17571;DHT22;8903;52.220;20.978;2023-05-10T04:49:35;9.10;96.10
17571;DHT22;8903;52.220;20.978;2023-05-10T04:52:03;9.10;96.00
17571;DHT22;8903;52.220;20.978;2023-05-10T04:54:30;9.10;96.00
17571;DHT22;8903;52.220;20.978;2023-05-10T04:56:57;9.20;96.10
17571;DHT22;8903;52.220;20.978;2023-05-10T04:59:24;9.40;95.80
17571;DHT22;8903;52.220;20.978;2023-05-10T05:01:52;9.50;95.90
17571;DHT22;8903;52.220;20.978;2023-05-10T05:04:19;9.60;95.50
17571;DHT22;8903;52.220;20.978;2023-05-10T05:06:45;9.70;95.50
17571;DHT22;8903;52.220;20.978;2023-05-10T05:09:14;9.80;95.50
17571;DHT22;8903;52.220;20.978;2023-05-10T05:11:42;9.80;95.30
17571;DHT22;8903;52.220;20.978;2023-05-10T05:14:09;9.90;95.30
17571;DHT22;8903;52.220;20.978;2023-05-10T05:16:35;10.00;95.50
17571;DHT22;8903;52.220;20.978;2023-05-10T05:19:02;10.10;95.50
17571;DHT22;8903;52.220;20.978;2023-05-10T05:21:29;10.20;95.10
17571;DHT22;8903;52.220;20.978;2023-05-10T05:23:57;10.30;95.00
17571;DHT22;8903;52.220;20.978;2023-05-10T05:26:26;10.30;94.70
17571;DHT22;8903;52.220;20.978;2023-05-10T05:28:53;10.40;94.50
17571;DHT22;8903;52.220;20.978;2023-05-10T05:31:21;10.40;94.70
17571;DHT22;8903;52.220;20.978;2023-05-10T05:33:48;10.40;94.60
17571;DHT22;8903;52.220;20.978;2023-05-10T05:36:15;10.40;94.60
17571;DHT22;8903;52.220;20.978;2023-05-10T05:38:42;10.50;94.80
17571;DHT22;8903;52.220;20.978;2023-05-10T05:41:09;10.60;94.90
17571;DHT22;8903;52.220;20.978;2023-05-10T05:43:37;10.70;94.60
17571;DHT22;8903;52.220;20.978;2023-05-10T05:46:04;10.80;94.60
17571;DHT22;8903;52.220;20.978;2023-05-10T05:48:31;10.80;94.90
17571;DHT22;8903;52.220;20.978;2023-05-10T05:50:58;10.90;94.40
17571;DHT22;8903;52.220;20.978;2023-05-10T05:53:25;10.90;94.60
17571;DHT22;8903;52.220;20.978;2023-05-10T05:55:53;11.00;94.40
17571;DHT22;8903;52.220;20.978;2023-05-10T05:58:20;11.10;94.30
17571;DHT22;8903;52.220;20.978;2023-05-10T06:00:49;11.10;94.30
17571;DHT22;8903;52.220;20.978;2023-05-10T06:03:17;11.20;94.20
17571;DHT22;8903;52.220;20.978;2023-05-10T06:05:44;11.20;94.30
17571;DHT22;8903;52.220;20.978;2023-05-10T06:08:11;11.30;94.20
17571;DHT22;8903;52.220;20.978;2023-05-10T06:10:38;11.40;94.30
17571;DHT22;8903;52.220;20.978;2023-05-10T06:13:05;11.50;94.40
17571;DHT22;8903;52.220;20.978;2023-05-10T06:15:32;11.60;94.70
17571;DHT22;8903;52.220;20.978;2023-05-10T06:18:01;11.70;94.20
17571;DHT22;8903;52.220;20.978;2023-05-10T06:20:28;11.80;94.10
17571;DHT22;8903;52.220;20.978;2023-05-10T06:22:57;11.90;93.80
17571;DHT22;8903;52.220;20.978;2023-05-10T06:25:24;12.00;93.70
17571;DHT22;8903;52.220;20.978;2023-05-10T06:27:51;12.00;93.80
17571;DHT22;8903;52.220;20.978;2023-05-10T06:30:24;12.10;93.80
17571;DHT22;8903;52.220;20.978;2023-05-10T06:32:54;12.20;93.60
17571;DHT22;8903;52.220;20.978;2023-05-10T06:35:23;12.30;93.60
17571;DHT22;8903;52.220;20.978;2023-05-10T06:37:50;12.40;93.80
17571;DHT22;8903;52.220;20.978;2023-05-10T06:40:18;12.40;93.30
17571;DHT22;8903;52.220;20.978;2023-05-10T06:42:45;12.50;93.40
17571;DHT22;8903;52.220;20.978;2023-05-10T06:45:12;12.60;93.10
17571;DHT22;8903;52.220;20.978;2023-05-10T06:47:40;12.70;93.20
17571;DHT22;8903;52.220;20.978;2023-05-10T06:50:07;12.80;93.30
17571;DHT22;8903;52.220;20.978;2023-05-10T06:52:36;12.90;93.40
17571;DHT22;8903;52.220;20.978;2023-05-10T06:55:03;13.00;93.20
17571;DHT22;8903;52.220;20.978;2023-05-10T06:57:31;13.10;93.20
17571;DHT22;8903;52.220;20.978;2023-05-10T06:59:58;13.20;92.50
17571;DHT22;8903;52.220;20.978;2023-05-10T07:02:25;13.30;92.30
17571;DHT22;8903;52.220;20.978;2023-05-10T07:04:52;13.40;92.00
17571;DHT22;8903;52.220;20.978;2023-05-10T07:07:19;13.50;91.90
17571;DHT22;8903;52.220;20.978;2023-05-10T07:09:47;13.60;91.90
17571;DHT22;8903;52.220;20.978;2023-05-10T07:12:15;13.70;91.40
17571;DHT22;8903;52.220;20.978;2023-05-10T07:14:42;13.70;91.40
17571;DHT22;8903;52.220;20.978;2023-05-10T07:17:09;13.80;91.20
17571;DHT22;8903;52.220;20.978;2023-05-10T07:19:36;13.90;90.90
17571;DHT22;8903;52.220;20.978;2023-05-10T07:22:03;14.00;90.80
17571;DHT22;8903;52.220;20.978;2023-05-10T07:24:31;14.00;90.40
17571;DHT22;8903;52.220;20.978;2023-05-10T07:27:00;14.10;90.40
17571;DHT22;8903;52.220;20.978;2023-05-10T07:29:27;14.10;90.00
17571;DHT22;8903;52.220;20.978;2023-05-10T07:31:54;14.20;90.20
17571;DHT22;8903;52.220;20.978;2023-05-10T07:34:21;14.30;90.10
17571;DHT22;8903;52.220;20.978;2023-05-10T07:36:48;14.40;87.70
17571;DHT22;8903;52.220;20.978;2023-05-10T07:39:15;14.50;87.40
17571;DHT22;8903;52.220;20.978;2023-05-10T07:41:42;14.60;87.90
17571;DHT22;8903;52.220;20.978;2023-05-10T07:44:10;14.80;88.60
17571;DHT22;8903;52.220;20.978;2023-05-10T07:46:38;14.80;84.00
17571;DHT22;8903;52.220;20.978;2023-05-10T07:49:05;14.90;83.10
17571;DHT22;8903;52.220;20.978;2023-05-10T07:51:32;15.00;84.10
17571;DHT22;8903;52.220;20.978;2023-05-10T07:53:59;15.10;84.10
17571;DHT22;8903;52.220;20.978;2023-05-10T07:56:27;15.10;83.10
17571;DHT22;8903;52.220;20.978;2023-05-10T07:58:55;15.10;80.10
17571;DHT22;8903;52.220;20.978;2023-05-10T08:01:24;15.10;80.90
17571;DHT22;8903;52.220;20.978;2023-05-10T08:03:51;15.20;80.70
17571;DHT22;8903;52.220;20.978;2023-05-10T08:06:19;15.20;80.90
17571;DHT22;8903;52.220;20.978;2023-05-10T08:08:47;15.20;79.30
17571;DHT22;8903;52.220;20.978;2023-05-10T08:11:14;15.20;79.90
17571;DHT22;8903;52.220;20.978;2023-05-10T08:13:41;15.20;80.20
17571;DHT22;8903;52.220;20.978;2023-05-10T08:16:08;15.20;80.60
17571;DHT22;8903;52.220;20.978;2023-05-10T08:18:37;15.30;80.30
17571;DHT22;8903;52.220;20.978;2023-05-10T08:21:04;15.40;80.40
17571;DHT22;8903;52.220;20.978;2023-05-10T08:23:34;15.40;81.90
17571;DHT22;8903;52.220;20.978;2023-05-10T08:26:01;15.50;80.00
17571;DHT22;8903;52.220;20.978;2023-05-10T08:28:28;15.60;79.30
17571;DHT22;8903;52.220;20.978;2023-05-10T08:30:55;15.70;79.50
17571;DHT22;8903;52.220;20.978;2023-05-10T08:33:22;15.90;78.90
17571;DHT22;8903;52.220;20.978;2023-05-10T08:35:51;15.90;79.20
17571;DHT22;8903;52.220;20.978;2023-05-10T08:38:18;16.00;76.90
17571;DHT22;8903;52.220;20.978;2023-05-10T08:40:45;16.00;77.00
17571;DHT22;8903;52.220;20.978;2023-05-10T08:43:14;16.10;76.80
17571;DHT22;8903;52.220;20.978;2023-05-10T08:45:43;16.00;76.80
17571;DHT22;8903;52.220;20.978;2023-05-10T08:48:11;16.00;76.60
17571;DHT22;8903;52.220;20.978;2023-05-10T08:50:39;15.90;77.20
17571;DHT22;8903;52.220;20.978;2023-05-10T08:53:11;15.90;77.60
17571;DHT22;8903;52.220;20.978;2023-05-10T08:55:39;16.00;77.90
17571;DHT22;8903;52.220;20.978;2023-05-10T08:58:08;16.10;77.70
17571;DHT22;8903;52.220;20.978;2023-05-10T09:00:35;16.10;77.90
17571;DHT22;8903;52.220;20.978;2023-05-10T09:03:06;16.20;77.90
17571;DHT22;8903;52.220;20.978;2023-05-10T09:05:33;16.40;77.30
17571;DHT22;8903;52.220;20.978;2023-05-10T09:08:00;16.30;76.10
17571;DHT22;8903;52.220;20.978;2023-05-10T09:10:30;16.30;75.70
17571;DHT22;8903;52.220;20.978;2023-05-10T09:12:57;16.40;76.60
17571;DHT22;8903;52.220;20.978;2023-05-10T09:15:24;16.40;75.90
17571;DHT22;8903;52.220;20.978;2023-05-10T09:17:52;16.50;75.60
17571;DHT22;8903;52.220;20.978;2023-05-10T09:20:19;16.50;75.40
17571;DHT22;8903;52.220;20.978;2023-05-10T09:22:46;16.50;76.10
17571;DHT22;8903;52.220;20.978;2023-05-10T09:25:14;16.50;76.20
17571;DHT22;8903;52.220;20.978;2023-05-10T09:27:45;16.60;76.20
17571;DHT22;8903;52.220;20.978;2023-05-10T09:30:15;16.60;76.60
17571;DHT22;8903;52.220;20.978;2023-05-10T09:32:45;16.60;75.90
17571;DHT22;8903;52.220;20.978;2023-05-10T09:35:14;16.60;76.80
17571;DHT22;8903;52.220;20.978;2023-05-10T09:37:42;16.70;76.80
17571;DHT22;8903;52.220;20.978;2023-05-10T09:40:12;16.70;77.00
17571;DHT22;8903;52.220;20.978;2023-05-10T09:42:41;16.70;76.70
17571;DHT22;8903;52.220;20.978;2023-05-10T09:45:10;16.60;77.30
17571;DHT22;8903;52.220;20.978;2023-05-10T09:47:37;16.50;77.00
17571;DHT22;8903;52.220;20.978;2023-05-10T09:50:05;16.50;77.80
17571;DHT22;8903;52.220;20.978;2023-05-10T09:52:47;16.60;76.80
17571;DHT22;8903;52.220;20.978;2023-05-10T09:55:14;16.60;77.90
17571;DHT22;8903;52.220;20.978;2023-05-10T09:57:41;16.70;78.90
17571;DHT22;8903;52.220;20.978;2023-05-10T10:00:34;16.80;75.70
17571;DHT22;8903;52.220;20.978;2023-05-10T10:03:02;16.80;76.40
17571;DHT22;8903;52.220;20.978;2023-05-10T10:05:30;16.90;78.60
17571;DHT22;8903;52.220;20.978;2023-05-10T10:07:58;17.00;77.20
17571;DHT22;8903;52.220;20.978;2023-05-10T10:10:27;17.10;76.90
17571;DHT22;8903;52.220;20.978;2023-05-10T10:12:54;17.10;77.20
17571;DHT22;8903;52.220;20.978;2023-05-10T10:15:23;17.10;77.00
17571;DHT22;8903;52.220;20.978;2023-05-10T10:17:51;17.20;77.40
17571;DHT22;8903;52.220;20.978;2023-05-10T10:20:20;17.30;76.00
17571;DHT22;8903;52.220;20.978;2023-05-10T10:22:48;17.30;74.90
17571;DHT22;8903;52.220;20.978;2023-05-10T10:25:17;17.30;75.40
17571;DHT22;8903;52.220;20.978;2023-05-10T10:30:39;17.20;76.00
17571;DHT22;8903;52.220;20.978;2023-05-10T10:36:07;17.30;75.80
17571;DHT22;8903;52.220;20.978;2023-05-10T10:38:54;17.30;76.30
17571;DHT22;8903;52.220;20.978;2023-05-10T10:41:32;17.30;76.80
17571;DHT22;8903;52.220;20.978;2023-05-10T10:44:24;17.40;76.10
17571;DHT22;8903;52.220;20.978;2023-05-10T10:47:04;17.40;75.00
17571;DHT22;8903;52.220;20.978;2023-05-10T10:49:37;17.40;75.60
17571;DHT22;8903;52.220;20.978;2023-05-10T10:52:15;17.50;76.00
17571;DHT22;8903;52.220;20.978;2023-05-10T10:54:50;17.60;74.40
17571;DHT22;8903;52.220;20.978;2023-05-10T10:57:19;17.50;73.60
17571;DHT22;8903;52.220;20.978;2023-05-10T10:59:47;17.50;73.60
17571;DHT22;8903;52.220;20.978;2023-05-10T11:05:39;17.40;73.10
17571;DHT22;8903;52.220;20.978;2023-05-10T11:08:12;17.40;73.50
17571;DHT22;8903;52.220;20.978;2023-05-10T11:10:48;17.30;73.90
17571;DHT22;8903;52.220;20.978;2023-05-10T11:13:15;17.30;73.80
17571;DHT22;8903;52.220;20.978;2023-05-10T11:15:48;17.40;74.50
17571;DHT22;8903;52.220;20.978;2023-05-10T11:18:19;17.50;73.80
17571;DHT22;8903;52.220;20.978;2023-05-10T11:20:52;17.40;73.80
17571;DHT22;8903;52.220;20.978;2023-05-10T11:23:19;17.50;73.70
17571;DHT22;8903;52.220;20.978;2023-05-10T11:25:48;18.60;72.50
17571;DHT22;8903;52.220;20.978;2023-05-10T11:28:17;19.90;68.90
17571;DHT22;8903;52.220;20.978;2023-05-10T11:30:45;20.30;68.30
17571;DHT22;8903;52.220;20.978;2023-05-10T11:33:16;20.30;69.30
17571;DHT22;8903;52.220;20.978;2023-05-10T11:35:45;20.70;69.10
17571;DHT22;8903;52.220;20.978;2023-05-10T11:38:14;20.90;68.80
17571;DHT22;8903;52.220;20.978;2023-05-10T11:40:41;21.10;69.10
17571;DHT22;8903;52.220;20.978;2023-05-10T11:43:09;21.30;68.50
17571;DHT22;8903;52.220;20.978;2023-05-10T11:45:37;21.30;68.10
17571;DHT22;8903;52.220;20.978;2023-05-10T11:48:04;21.00;68.60
17571;DHT22;8903;52.220;20.978;2023-05-10T11:50:32;21.10;69.30
17571;DHT22;8903;52.220;20.978;2023-05-10T11:52:59;21.10;68.90
17571;DHT22;8903;52.220;20.978;2023-05-10T11:55:27;20.90;69.70
17571;DHT22;8903;52.220;20.978;2023-05-10T11:58:00;21.10;69.20
17571;DHT22;8903;52.220;20.978;2023-05-10T12:00:28;21.30;69.30
17571;DHT22;8903;52.220;20.978;2023-05-10T12:02:55;21.50;68.60
17571;DHT22;8903;52.220;20.978;2023-05-10T12:05:22;21.70;68.40
17571;DHT22;8903;52.220;20.978;2023-05-10T12:07:49;21.60;68.40
17571;DHT22;8903;52.220;20.978;2023-05-10T12:10:26;21.50;69.40
17571;DHT22;8903;52.220;20.978;2023-05-10T12:12:53;21.60;68.40
17571;DHT22;8903;52.220;20.978;2023-05-10T12:15:21;21.50;68.20
17571;DHT22;8903;52.220;20.978;2023-05-10T12:17:49;21.60;67.90
17571;DHT22;8903;52.220;20.978;2023-05-10T12:20:18;21.50;67.20
17571;DHT22;8903;52.220;20.978;2023-05-10T12:22:47;21.70;67.40
17571;DHT22;8903;52.220;20.978;2023-05-10T12:25:16;21.80;67.40
17571;DHT22;8903;52.220;20.978;2023-05-10T12:27:50;21.90;67.90
17571;DHT22;8903;52.220;20.978;2023-05-10T12:30:21;22.10;67.60
17571;DHT22;8903;52.220;20.978;2023-05-10T12:32:48;22.30;67.00
17571;DHT22;8903;52.220;20.978;2023-05-10T12:35:16;22.40;67.20
17571;DHT22;8903;52.220;20.978;2023-05-10T12:37:44;22.30;66.70
17571;DHT22;8903;52.220;20.978;2023-05-10T12:40:11;22.30;66.60
17571;DHT22;8903;52.220;20.978;2023-05-10T12:42:39;22.50;66.10
17571;DHT22;8903;52.220;20.978;2023-05-10T12:45:08;22.50;66.40
17571;DHT22;8903;52.220;20.978;2023-05-10T12:47:35;22.50;66.90
17571;DHT22;8903;52.220;20.978;2023-05-10T12:50:03;22.20;65.90
17571;DHT22;8903;52.220;20.978;2023-05-10T12:52:31;22.20;67.00
17571;DHT22;8903;52.220;20.978;2023-05-10T12:54:58;22.20;67.50
17571;DHT22;8903;52.220;20.978;2023-05-10T12:57:26;22.10;65.90
17571;DHT22;8903;52.220;20.978;2023-05-10T12:59:53;22.00;67.40
17571;DHT22;8903;52.220;20.978;2023-05-10T13:02:22;21.90;67.60
17571;DHT22;8903;52.220;20.978;2023-05-10T13:04:50;21.90;67.30
17571;DHT22;8903;52.220;20.978;2023-05-10T13:07:17;22.10;67.50
17571;DHT22;8903;52.220;20.978;2023-05-10T13:09:45;22.40;66.70
17571;DHT22;8903;52.220;20.978;2023-05-10T13:12:12;22.30;66.70
17571;DHT22;8903;52.220;20.978;2023-05-10T13:14:39;22.10;67.20
17571;DHT22;8903;52.220;20.978;2023-05-10T13:17:08;22.10;67.60
17571;DHT22;8903;52.220;20.978;2023-05-10T13:19:37;22.20;67.30
17571;DHT22;8903;52.220;20.978;2023-05-10T13:22:04;22.40;66.90
17571;DHT22;8903;52.220;20.978;2023-05-10T13:24:31;22.50;66.30
17571;DHT22;8903;52.220;20.978;2023-05-10T13:26:58;22.30;66.80
17571;DHT22;8903;52.220;20.978;2023-05-10T13:29:25;22.20;67.00
17571;DHT22;8903;52.220;20.978;2023-05-10T13:31:55;22.00;66.90
17571;DHT22;8903;52.220;20.978;2023-05-10T13:34:23;21.80;67.60
17571;DHT22;8903;52.220;20.978;2023-05-10T13:36:51;21.80;68.10
17571;DHT22;8903;52.220;20.978;2023-05-10T13:39:20;21.80;67.20
17571;DHT22;8903;52.220;20.978;2023-05-10T13:41:47;21.80;67.60
17571;DHT22;8903;52.220;20.978;2023-05-10T13:44:14;22.10;68.20
17571;DHT22;8903;52.220;20.978;2023-05-10T13:46:42;22.10;66.00
17571;DHT22;8903;52.220;20.978;2023-05-10T13:49:10;21.80;66.40
17571;DHT22;8903;52.220;20.978;2023-05-10T13:51:37;21.90;67.30
17571;DHT22;8903;52.220;20.978;2023-05-10T13:54:06;21.90;67.30
17571;DHT22;8903;52.220;20.978;2023-05-10T13:56:33;22.00;68.30
17571;DHT22;8903;52.220;20.978;2023-05-10T13:59:00;22.10;66.40
17571;DHT22;8903;52.220;20.978;2023-05-10T14:01:27;22.00;66.90
17571;DHT22;8903;52.220;20.978;2023-05-10T14:03:54;22.30;66.90
17571;DHT22;8903;52.220;20.978;2023-05-10T14:06:22;22.40;65.80
17571;DHT22;8903;52.220;20.978;2023-05-10T14:08:49;22.50;65.80
17571;DHT22;8903;52.220;20.978;2023-05-10T14:11:17;22.50;66.30
17571;DHT22;8903;52.220;20.978;2023-05-10T14:13:45;22.50;67.60
17571;DHT22;8903;52.220;20.978;2023-05-10T14:16:12;22.70;66.00
17571;DHT22;8903;52.220;20.978;2023-05-10T14:18:40;22.90;65.40
17571;DHT22;8903;52.220;20.978;2023-05-10T14:21:08;22.90;64.90
17571;DHT22;8903;52.220;20.978;2023-05-10T14:23:35;22.60;65.80
17571;DHT22;8903;52.220;20.978;2023-05-10T14:26:02;22.70;66.30
17571;DHT22;8903;52.220;20.978;2023-05-10T14:28:31;22.40;66.40
17571;DHT22;8903;52.220;20.978;2023-05-10T14:30:58;22.30;66.60
17571;DHT22;8903;52.220;20.978;2023-05-10T14:33:26;22.30;67.30
17571;DHT22;8903;52.220;20.978;2023-05-10T14:35:54;22.60;66.60
17571;DHT22;8903;52.220;20.978;2023-05-10T14:38:22;22.50;65.10
17571;DHT22;8903;52.220;20.978;2023-05-10T14:40:49;22.50;65.80
17571;DHT22;8903;52.220;20.978;2023-05-10T14:43:16;22.60;65.90
17571;DHT22;8903;52.220;20.978;2023-05-10T14:45:45;22.80;65.80
17571;DHT22;8903;52.220;20.978;2023-05-10T14:48:12;22.80;66.40
17571;DHT22;8903;52.220;20.978;2023-05-10T14:50:41;22.90;64.90
17571;DHT22;8903;52.220;20.978;2023-05-10T14:53:08;22.80;65.20
17571;DHT22;8903;52.220;20.978;2023-05-10T14:55:37;22.40;65.50
17571;DHT22;8903;52.220;20.978;2023-05-10T14:58:05;22.00;65.70
17571;DHT22;8903;52.220;20.978;2023-05-10T15:00:32;22.00;65.40
17571;DHT22;8903;52.220;20.978;2023-05-10T15:03:01;21.90;66.20
17571;DHT22;8903;52.220;20.978;2023-05-10T15:05:29;21.90;66.80
17571;DHT22;8903;52.220;20.978;2023-05-10T15:07:56;21.90;67.50
17571;DHT22;8903;52.220;20.978;2023-05-10T15:10:23;22.20;67.90
17571;DHT22;8903;52.220;20.978;2023-05-10T15:12:50;22.50;66.60
17571;DHT22;8903;52.220;20.978;2023-05-10T15:15:19;22.50;66.50
17571;DHT22;8903;52.220;20.978;2023-05-10T15:17:49;22.60;66.50
17571;DHT22;8903;52.220;20.978;2023-05-10T15:20:18;22.50;66.60
17571;DHT22;8903;52.220;20.978;2023-05-10T15:22:46;22.40;66.80
17571;DHT22;8903;52.220;20.978;2023-05-10T15:25:13;22.30;67.30
17571;DHT22;8903;52.220;20.978;2023-05-10T15:27:41;22.10;67.40
17571;DHT22;8903;52.220;20.978;2023-05-10T15:30:10;22.00;67.80
17571;DHT22;8903;52.220;20.978;2023-05-10T15:32:37;21.60;67.70
17571;DHT22;8903;52.220;20.978;2023-05-10T15:35:07;21.30;68.60
17571;DHT22;8903;52.220;20.978;2023-05-10T15:37:37;20.90;68.80
17571;DHT22;8903;52.220;20.978;2023-05-10T15:40:06;20.60;70.00
17571;DHT22;8903;52.220;20.978;2023-05-10T15:42:33;20.50;70.20
17571;DHT22;8903;52.220;20.978;2023-05-10T15:45:00;20.30;69.80
17571;DHT22;8903;52.220;20.978;2023-05-10T15:47:30;20.00;70.20
17571;DHT22;8903;52.220;20.978;2023-05-10T15:49:57;19.70;70.60
17571;DHT22;8903;52.220;20.978;2023-05-10T15:52:25;19.50;70.90
17571;DHT22;8903;52.220;20.978;2023-05-10T15:54:56;19.30;71.60